Time;durP1;ratioP1;P1;durP2;ratioP2;P2;SDS_P1;SDS_P2;PMS_P1;PMS_P2;Temp;Humidity;BMP_temperature;BMP_pressure;BME280_temperature;BME280_humidity;BME280_pressure;Samples;Min_cycle;Max_cycle;Signal;HPM_P1;HPM_P2
2023/06/02 00:01:43;;;;;;;1.48;0.60;;;10.80;99.90;;;;;;7401432;19;19922;-69
2023/06/02 00:04:17;;;;;;;1.67;0.50;;;10.80;99.90;;;;;;7399692;19;20242;-69
2023/06/02 00:06:47;;;;;;;3.00;0.60;;;10.70;99.90;;;;;;7399569;19;19918;-69
2023/06/02 00:09:16;;;;;;;2.53;0.63;;;10.70;99.90;;;;;;7401526;19;19947;-68
2023/06/02 00:11:45;;;;;;;3.15;0.50;;;10.60;99.90;;;;;;7401742;19;19947;-69
2023/06/02 00:14:14;;;;;;;3.22;0.77;;;10.60;99.90;;;;;;7400293;19;19932;-69
2023/06/02 00:16:48;;;;;;;2.83;0.50;;;10.60;99.90;;;;;;7399858;19;19926;-69
2023/06/02 00:19:20;;;;;;;1.13;0.43;;;10.50;99.90;;;;;;7398691;19;19919;-69
2023/06/02 00:21:48;;;;;;;;;;;10.40;99.90;;;;;;7397761;19;19918;-69
2023/06/02 00:24:19;;;;;;;2.15;0.40;;;10.60;99.90;;;;;;7397021;19;19919;-69
2023/06/02 00:26:48;;;;;;;1.60;0.40;;;10.50;99.90;;;;;;7398714;19;19922;-69
2023/06/02 00:29:17;;;;;;;1.55;0.52;;;10.40;99.90;;;;;;7396853;19;20037;-70
2023/06/02 00:31:46;;;;;;;1.45;0.90;;;10.50;99.90;;;;;;7398002;19;19915;-69
2023/06/02 00:34:15;;;;;;;2.08;0.60;;;10.60;99.90;;;;;;7397122;19;20376;-69
2023/06/02 00:36:47;;;;;;;2.55;0.50;;;10.40;99.90;;;;;;7400597;19;19919;-69
2023/06/02 00:39:17;;;;;;;0.90;0.45;;;10.50;99.90;;;;;;7399391;19;19943;-69
2023/06/02 00:41:46;;;;;;;4.93;0.70;;;10.40;99.90;;;;;;7396901;19;19978;-69
2023/06/02 00:44:17;;;;;;;2.97;0.93;;;10.30;99.90;;;;;;7395711;19;19958;-69
2023/06/02 00:46:46;;;;;;;2.50;0.50;;;10.50;99.90;;;;;;7397096;19;19929;-69
2023/06/02 00:49:15;;;;;;;3.90;0.70;;;10.50;99.90;;;;;;7396637;19;19943;-69
2023/06/02 00:51:47;;;;;;;1.55;0.60;;;10.40;99.90;;;;;;7397474;19;19919;-69
2023/06/02 00:54:17;;;;;;;2.25;0.70;;;10.40;99.90;;;;;;7397970;19;20621;-69
2023/06/02 00:56:46;;;;;;;4.20;0.80;;;10.40;99.90;;;;;;7394624;19;19926;-69
2023/06/02 00:59:16;;;;;;;1.52;0.70;;;10.40;99.90;;;;;;7398704;19;19923;-68
2023/06/02 01:01:48;;;;;;;4.13;0.57;;;10.40;99.90;;;;;;7397510;19;19974;-69
2023/06/02 01:04:18;;;;;;;2.00;0.60;;;10.30;99.90;;;;;;7399917;19;20262;-69
2023/06/02 01:06:51;;;;;;;2.53;0.70;;;10.30;99.90;;;;;;7398407;19;19918;-69
2023/06/02 01:09:21;;;;;;;3.10;0.80;;;10.40;99.90;;;;;;7398444;19;19918;-68
2023/06/02 01:11:51;;;;;;;2.65;0.70;;;10.20;99.90;;;;;;7398631;19;19929;-69
2023/06/02 01:14:20;;;;;;;2.40;0.63;;;10.30;99.90;;;;;;7397702;19;19940;-68
2023/06/02 01:16:51;;;;;;;4.88;0.88;;;10.10;99.90;;;;;;7403633;19;19970;-69
2023/06/02 01:19:26;;;;;;;3.35;0.70;;;10.20;99.90;;;;;;7404992;19;19982;-69
2023/06/02 01:22:03;;;;;;;2.45;0.47;;;10.20;99.90;;;;;;7404897;19;19930;-69
2023/06/02 01:24:39;;;;;;;3.00;0.60;;;10.10;99.90;;;;;;7403682;19;19971;-69
2023/06/02 01:27:09;;;;;;;2.25;0.52;;;10.10;99.90;;;;;;7401260;19;19984;-69
2023/06/02 01:29:39;;;;;;;1.75;0.60;;;10.00;99.90;;;;;;7406215;19;20010;-69
2023/06/02 01:32:14;;;;;;;4.90;0.95;;;10.10;99.90;;;;;;7405337;19;20306;-69
2023/06/02 01:34:46;;;;;;;3.17;0.52;;;10.10;99.90;;;;;;7405306;19;19978;-69
2023/06/02 01:37:17;;;;;;;1.38;0.50;;;10.00;99.90;;;;;;7404561;19;19942;-69
2023/06/02 01:39:50;;;;;;;2.85;0.52;;;10.10;99.90;;;;;;7403154;19;19911;-69
2023/06/02 01:42:20;;;;;;;4.63;0.65;;;10.10;99.90;;;;;;7402793;19;19929;-69
2023/06/02 01:44:49;;;;;;;2.35;0.60;;;10.10;99.90;;;;;;7398928;19;20265;-69
2023/06/02 01:47:19;;;;;;;2.03;0.70;;;10.10;99.90;;;;;;7402605;19;20280;-69
2023/06/02 01:49:47;;;;;;;3.90;0.60;;;10.00;99.90;;;;;;7406893;19;19930;-69
2023/06/02 01:52:16;;;;;;;2.95;0.52;;;10.20;99.90;;;;;;7404869;19;20002;-69
2023/06/02 01:54:46;;;;;;;2.53;0.70;;;10.30;99.90;;;;;;7405278;19;19974;-70
2023/06/02 01:57:17;;;;;;;2.03;0.65;;;10.30;99.90;;;;;;7404401;19;20062;-70
2023/06/02 01:59:46;;;;;;;2.03;0.65;;;10.30;99.90;;;;;;7404714;19;20005;-69
2023/06/02 02:02:15;;;;;;;2.75;0.57;;;10.30;99.90;;;;;;7404916;19;20018;-69
2023/06/02 02:04:44;;;;;;;4.07;0.90;;;10.30;99.90;;;;;;7402303;19;19929;-69
2023/06/02 02:07:19;;;;;;;2.42;0.65;;;10.40;99.90;;;;;;7403513;19;20009;-69
2023/06/02 02:09:48;;;;;;;1.67;0.57;;;10.40;99.90;;;;;;7401588;19;19919;-69
2023/06/02 02:12:21;;;;;;;1.30;0.50;;;10.40;99.90;;;;;;7402302;19;19982;-69
2023/06/02 02:14:53;;;;;;;2.90;0.60;;;10.40;99.90;;;;;;7400737;19;19918;-69
2023/06/02 02:17:25;;;;;;;2.30;0.77;;;10.40;99.90;;;;;;7397874;19;20352;-70
2023/06/02 02:19:55;;;;;;;1.45;0.50;;;10.50;99.90;;;;;;7404068;19;19922;-69
2023/06/02 02:22:25;;;;;;;1.80;0.65;;;9.50;99.90;;;;;;7399719;19;19930;-70
2023/06/02 02:24:54;;;;;;;1.38;0.50;;;10.50;99.90;;;;;;7404271;19;20258;-70
2023/06/02 02:27:26;;;;;;;2.28;0.50;;;10.50;99.90;;;;;;7402178;19;20224;-69
2023/06/02 02:29:55;;;;;;;2.38;0.52;;;10.50;99.90;;;;;;7403179;19;19922;-70
2023/06/02 02:32:24;;;;;;;1.95;0.55;;;10.50;99.90;;;;;;7402847;19;19929;-70
2023/06/02 02:34:53;;;;;;;3.60;0.52;;;10.40;99.90;;;;;;7402330;19;19922;-69
2023/06/02 02:37:22;;;;;;;1.90;0.60;;;10.60;99.90;;;;;;7404111;19;20423;-70
2023/06/02 02:39:52;;;;;;;2.15;0.63;;;10.50;99.90;;;;;;7402779;19;19986;-69
2023/06/02 02:42:21;;;;;;;2.33;0.50;;;10.50;99.90;;;;;;7401754;19;19931;-69
2023/06/02 02:44:52;;;;;;;3.40;0.68;;;10.50;99.90;;;;;;7400937;19;19962;-69
2023/06/02 02:47:21;;;;;;;2.53;0.90;;;10.60;99.90;;;;;;7400532;19;19922;-69
2023/06/02 02:49:50;;;;;;;2.80;0.70;;;10.70;99.90;;;;;;7400585;19;19929;-69
2023/06/02 02:52:20;;;;;;;1.60;0.70;;;10.60;99.90;;;;;;7402459;19;20617;-70
2023/06/02 02:54:49;;;;;;;3.63;0.80;;;10.50;99.90;;;;;;7402376;19;20408;-70
2023/06/02 02:57:18;;;;;;;4.30;0.70;;;10.70;99.90;;;;;;7404194;19;19922;-69
2023/06/02 02:59:47;;;;;;;2.72;0.75;;;10.70;99.90;;;;;;7403064;19;19914;-70
2023/06/02 03:02:19;;;;;;;4.30;0.70;;;10.60;99.90;;;;;;7399548;19;19925;-69
2023/06/02 03:04:51;;;;;;;1.80;0.68;;;10.80;99.90;;;;;;7399075;19;19926;-70
2023/06/02 03:07:20;;;;;;;1.60;0.80;;;10.70;99.90;;;;;;7399436;19;19925;-70
2023/06/02 03:09:49;;;;;;;1.73;0.60;;;11.60;99.90;;;;;;7399184;19;20329;-70
2023/06/02 03:12:18;;;;;;;3.22;0.70;;;10.50;99.90;;;;;;7399994;19;20392;-69
2023/06/02 03:14:47;;;;;;;2.72;0.80;;;10.70;99.90;;;;;;7400247;19;20287;-69
2023/06/02 03:17:20;;;;;;;2.58;0.82;;;10.60;99.90;;;;;;7402698;19;19918;-70
2023/06/02 03:19:48;;;;;;;3.13;1.02;;;10.70;99.90;;;;;;7401574;19;19926;-69
2023/06/02 03:22:17;;;;;;;1.25;0.52;;;10.80;99.90;;;;;;7403165;19;19939;-69
2023/06/02 03:24:46;;;;;;;3.25;0.82;;;10.70;99.90;;;;;;7402657;19;19918;-70
2023/06/02 03:27:15;;;;;;;1.98;0.60;;;10.70;99.90;;;;;;7401302;19;20411;-70
2023/06/02 03:29:44;;;;;;;3.35;0.80;;;10.70;99.90;;;;;;7399971;19;19985;-70
2023/06/02 03:32:15;;;;;;;4.10;1.10;;;10.70;99.90;;;;;;7402921;19;19922;-69
2023/06/02 03:34:48;;;;;;;3.05;0.90;;;10.70;99.90;;;;;;7400678;19;19922;-69
2023/06/02 03:37:17;;;;;;;2.35;0.65;;;10.50;99.90;;;;;;7399723;19;20051;-69
2023/06/02 03:39:46;;;;;;;3.55;0.95;;;10.80;99.90;;;;;;7400525;19;19934;-70
2023/06/02 03:42:16;;;;;;;2.42;0.60;;;10.70;99.90;;;;;;7399272;19;19922;-69
2023/06/02 03:44:45;;;;;;;1.75;0.65;;;10.70;99.90;;;;;;7399437;19;20261;-69
2023/06/02 03:47:14;;;;;;;1.77;0.70;;;10.70;99.90;;;;;;7399466;19;19926;-69
2023/06/02 03:49:45;;;;;;;2.40;0.90;;;10.60;99.90;;;;;;7400748;19;19959;-69
2023/06/02 03:52:15;;;;;;;3.10;0.70;;;10.80;99.90;;;;;;7400233;19;20288;-70
2023/06/02 03:54:43;;;;;;;1.17;0.50;;;10.70;99.90;;;;;;7400075;19;19926;-69
2023/06/02 03:57:12;;;;;;;3.05;0.80;;;10.70;99.90;;;;;;7399911;19;19932;-70
2023/06/02 03:59:41;;;;;;;2.00;0.60;;;10.70;99.90;;;;;;7398004;19;19929;-70
2023/06/02 04:02:10;;;;;;;4.40;1.15;;;10.90;99.90;;;;;;7399376;19;19922;-69
2023/06/02 04:04:40;;;;;;;2.72;0.95;;;10.80;99.90;;;;;;7399923;19;19990;-69
2023/06/02 04:07:11;;;;;;;3.85;0.70;;;10.80;99.90;;;;;;7401158;19;20663;-69
2023/06/02 04:09:40;;;;;;;2.47;0.70;;;10.70;99.90;;;;;;7400137;19;19933;-69
2023/06/02 04:12:10;;;;;;;3.60;1.23;;;10.90;99.90;;;;;;7400518;19;20018;-69
2023/06/02 04:14:39;;;;;;;2.92;0.90;;;10.90;99.90;;;;;;7400270;19;19994;-69
2023/06/02 04:17:08;;;;;;;2.45;0.90;;;10.60;99.90;;;;;;7399914;19;19943;-70
2023/06/02 04:19:37;;;;;;;4.25;0.80;;;10.90;99.90;;;;;;7400457;19;20354;-69
2023/06/02 04:22:07;;;;;;;4.00;0.90;;;10.90;99.90;;;;;;7399573;19;19994;-69
2023/06/02 04:24:41;;;;;;;16.67;1.75;;;10.80;99.90;;;;;;7400870;19;19993;-69
2023/06/02 04:27:10;;;;;;;2.58;0.65;;;10.90;99.90;;;;;;7400482;19;20612;-70
2023/06/02 04:29:40;;;;;;;3.00;0.90;;;11.10;99.90;;;;;;7398603;19;19929;-69
2023/06/02 04:32:10;;;;;;;3.17;1.00;;;11.00;99.90;;;;;;7398378;19;19923;-69
2023/06/02 04:34:38;;;;;;;3.10;0.70;;;11.00;99.90;;;;;;7396061;19;19939;-70
2023/06/02 04:37:08;;;;;;;1.92;0.68;;;11.10;99.90;;;;;;7399837;19;20343;-69
2023/06/02 04:39:39;;;;;;;4.90;0.98;;;11.00;99.90;;;;;;7398626;19;19994;-69
2023/06/02 04:42:09;;;;;;;4.80;1.10;;;11.00;99.90;;;;;;7399503;19;20333;-69
2023/06/02 04:44:39;;;;;;;5.10;0.93;;;11.10;99.90;;;;;;7395213;19;19926;-69
2023/06/02 04:47:08;;;;;;;3.38;0.95;;;11.10;99.90;;;;;;7397478;19;19929;-69
2023/06/02 04:49:38;;;;;;;3.13;0.98;;;11.10;99.90;;;;;;7401983;19;19982;-69
2023/06/02 04:52:08;;;;;;;1.65;0.65;;;11.10;99.90;;;;;;7404993;19;20264;-70
2023/06/02 04:54:40;;;;;;;5.93;1.23;;;11.00;99.90;;;;;;7403724;19;19923;-70
2023/06/02 04:57:09;;;;;;;2.60;1.17;;;11.20;99.90;;;;;;7403575;19;19922;-70
2023/06/02 04:59:38;;;;;;;4.05;1.00;;;10.20;99.90;;;;;;7404215;19;20297;-70
2023/06/02 05:02:07;;;;;;;3.33;0.77;;;11.20;99.90;;;;;;7403540;19;19981;-70
2023/06/02 05:04:37;;;;;;;3.75;0.95;;;11.20;99.90;;;;;;7404710;19;19919;-70
2023/06/02 05:07:07;;;;;;;4.88;0.90;;;11.30;99.90;;;;;;7403349;19;19919;-70
2023/06/02 05:09:36;;;;;;;2.60;0.80;;;11.20;99.90;;;;;;7406480;19;19947;-71
2023/06/02 05:12:10;;;;;;;6.82;1.13;;;11.30;99.90;;;;;;7404477;19;19986;-70
2023/06/02 05:14:39;;;;;;;2.38;0.95;;;11.30;99.90;;;;;;7403476;19;19926;-70
2023/06/02 05:17:09;;;;;;;4.97;1.00;;;11.30;99.90;;;;;;7406056;19;19915;-70
2023/06/02 05:19:38;;;;;;;3.80;1.00;;;11.40;99.90;;;;;;7404143;19;19933;-70
2023/06/02 05:22:07;;;;;;;4.38;1.00;;;11.40;99.90;;;;;;7405304;19;19925;-70
2023/06/02 05:24:36;;;;;;;3.67;0.90;;;11.60;99.90;;;;;;7406839;19;19918;-70
2023/06/02 05:27:08;;;;;;;3.10;0.93;;;11.50;99.90;;;;;;7405046;19;19943;-72
2023/06/02 05:29:37;;;;;;;4.53;1.00;;;11.60;99.90;;;;;;7404754;19;20320;-71
2023/06/02 05:32:07;;;;;;;3.38;1.02;;;11.60;99.90;;;;;;7405182;19;19915;-70
2023/06/02 05:34:36;;;;;;;3.78;1.10;;;11.60;99.90;;;;;;7405175;19;19984;-70
2023/06/02 05:37:06;;;;;;;3.15;0.70;;;11.70;99.90;;;;;;7402601;19;20347;-71
2023/06/02 05:39:35;;;;;;;2.28;0.88;;;11.70;99.90;;;;;;7402026;19;20239;-70
2023/06/02 05:42:07;;;;;;;6.65;1.35;;;11.90;99.90;;;;;;7403464;19;19934;-70
2023/06/02 05:44:36;;;;;;;5.30;0.98;;;12.00;99.90;;;;;;7401796;19;22480;-69
2023/06/02 05:47:06;;;;;;;3.35;0.90;;;11.90;99.90;;;;;;7403044;19;20324;-70
2023/06/02 05:49:35;;;;;;;3.85;0.98;;;12.10;99.90;;;;;;7404059;19;19943;-70
2023/06/02 05:52:04;;;;;;;3.58;1.20;;;12.10;99.90;;;;;;7407504;19;19990;-70
2023/06/02 05:54:33;;;;;;;4.03;1.13;;;12.20;99.90;;;;;;7404798;19;19966;-70
2023/06/02 05:57:02;;;;;;;4.30;1.10;;;12.30;99.90;;;;;;7404559;19;19926;-70
2023/06/02 05:59:34;;;;;;;7.82;1.20;;;12.30;99.90;;;;;;7404572;19;19993;-70
2023/06/02 06:02:03;;;;;;;3.22;1.10;;;12.30;99.90;;;;;;7401035;19;20273;-70
2023/06/02 06:04:31;;;;;;;3.80;1.00;;;12.30;99.90;;;;;;7404279;19;19990;-69
2023/06/02 06:07:01;;;;;;;4.28;1.33;;;12.20;99.90;;;;;;7404454;19;19926;-69
2023/06/02 06:09:31;;;;;;;2.47;1.20;;;12.30;99.90;;;;;;7402937;19;19951;-69
2023/06/02 06:12:00;;;;;;;3.45;1.08;;;12.50;99.90;;;;;;7402435;19;19922;-69
2023/06/02 06:14:29;;;;;;;6.50;0.95;;;12.40;99.90;;;;;;7403180;19;19986;-70
2023/06/02 06:17:01;;;;;;;1.67;0.70;;;12.50;99.90;;;;;;7401726;19;19931;-70
2023/06/02 06:19:29;;;;;;;;;;;10.70;99.90;;;;;;7405102;19;19919;-70
2023/06/02 06:21:58;;;;;;;2.40;0.70;;;12.70;99.90;;;;;;7398493;19;19997;-70
2023/06/02 06:24:27;;;;;;;2.67;1.08;;;12.70;99.90;;;;;;7401229;19;19929;-70
2023/06/02 06:26:56;;;;;;;3.00;1.38;;;12.80;99.90;;;;;;7402027;19;19978;-70
2023/06/02 06:29:25;;;;;;;2.13;1.00;;;12.60;99.90;;;;;;7398532;19;20367;-70
2023/06/02 06:31:54;;;;;;;2.10;0.70;;;12.70;99.90;;;;;;7400793;19;19930;-69
2023/06/02 06:34:27;;;;;;;3.72;1.10;;;12.80;99.90;;;;;;7398015;19;19926;-71
2023/06/02 06:36:56;;;;;;;4.32;1.02;;;12.80;99.90;;;;;;7401383;19;20214;-70
2023/06/02 06:39:25;;;;;;;4.03;1.13;;;12.90;99.90;;;;;;7397010;19;19921;-74
2023/06/02 06:41:54;;;;;;;2.15;0.60;;;13.00;99.90;;;;;;7397785;19;19919;-74
2023/06/02 06:44:22;;;;;;;3.53;1.48;;;12.90;99.90;;;;;;7394274;19;19994;-69
2023/06/02 06:46:51;;;;;;;3.03;1.00;;;13.10;99.90;;;;;;7404617;19;19922;-69
2023/06/02 06:49:21;;;;;;;2.63;0.98;;;12.80;99.90;;;;;;7401410;19;20014;-68
2023/06/02 06:51:53;;;;;;;2.92;0.70;;;12.80;99.90;;;;;;7402611;19;19925;-69
2023/06/02 06:54:22;;;;;;;4.15;1.20;;;13.00;99.90;;;;;;7395849;19;19982;-69
2023/06/02 06:56:50;;;;;;;3.55;0.80;;;13.00;99.90;;;;;;7402540;19;19982;-69
2023/06/02 06:59:19;;;;;;;3.70;1.17;;;13.20;99.90;;;;;;7398336;19;19928;-73
2023/06/02 07:01:48;;;;;;;3.20;0.90;;;13.00;99.90;;;;;;7403803;19;19926;-73
2023/06/02 07:04:17;;;;;;;1.52;0.90;;;13.30;99.90;;;;;;7403806;19;19974;-72
2023/06/02 07:06:47;;;;;;;3.50;1.00;;;13.20;99.90;;;;;;7403069;19;19974;-72
2023/06/02 07:09:18;;;;;;;3.78;0.90;;;13.30;99.90;;;;;;7403056;19;19911;-72
2023/06/02 07:11:47;;;;;;;2.78;0.82;;;13.40;99.90;;;;;;7404309;19;20337;-75
2023/06/02 07:14:17;;;;;;;4.00;0.90;;;13.40;99.90;;;;;;7399506;19;19927;-69
2023/06/02 07:16:52;;;;;;;3.90;0.95;;;13.50;99.90;;;;;;7402403;19;20442;-70
2023/06/02 07:19:21;;;;;;;3.47;1.15;;;13.50;99.90;;;;;;7398000;19;19922;-70
2023/06/02 07:21:50;;;;;;;2.97;0.90;;;13.50;99.90;;;;;;7403096;19;19910;-73
2023/06/02 07:24:22;;;;;;;2.53;0.85;;;13.50;99.90;;;;;;7404435;19;19934;-72
2023/06/02 07:26:51;;;;;;;2.63;0.93;;;13.50;99.90;;;;;;7402397;19;20315;-70
2023/06/02 07:29:20;;;;;;;4.32;0.93;;;13.50;99.90;;;;;;7401254;19;20010;-71
2023/06/02 07:31:48;;;;;;;1.40;0.70;;;13.60;99.90;;;;;;7401959;19;19974;-73
2023/06/02 07:34:18;;;;;;;2.95;0.90;;;13.60;99.90;;;;;;7399046;19;19943;-72
2023/06/02 07:36:47;;;;;;;1.98;0.90;;;13.70;99.90;;;;;;7401653;19;19921;-72
2023/06/02 07:39:17;;;;;;;3.75;0.93;;;13.60;99.90;;;;;;7400587;19;19919;-73
2023/06/02 07:41:48;;;;;;;2.92;0.70;;;13.80;99.90;;;;;;7400442;19;19926;-74
2023/06/02 07:44:17;;;;;;;3.00;0.90;;;13.80;99.90;;;;;;7401056;19;19990;-68
2023/06/02 07:46:47;;;;;;;2.38;1.02;;;13.90;99.90;;;;;;7401014;19;19923;-68
2023/06/02 07:49:16;;;;;;;4.35;1.33;;;14.10;99.90;;;;;;7400603;19;20572;-72
2023/06/02 07:51:45;;;;;;;4.47;0.73;;;14.00;99.90;;;;;;7394621;19;19961;-72
2023/06/02 07:54:14;;;;;;;3.25;0.90;;;14.20;99.90;;;;;;7401533;19;19918;-71
2023/06/02 07:56:43;;;;;;;2.65;0.93;;;14.20;99.90;;;;;;7401521;19;19923;-72
2023/06/02 07:59:16;;;;;;;3.22;0.70;;;14.30;99.90;;;;;;7401503;19;20336;-72
2023/06/02 08:01:45;;;;;;;2.72;0.65;;;14.10;99.90;;;;;;7401540;19;19986;-72
2023/06/02 08:04:14;;;;;;;1.90;0.68;;;14.20;99.90;;;;;;7401500;19;19946;-73
2023/06/02 08:06:43;;;;;;;2.50;0.60;;;14.20;99.90;;;;;;7401966;19;19919;-72
2023/06/02 08:09:12;;;;;;;3.65;0.80;;;14.30;99.90;;;;;;7399482;19;19917;-72
2023/06/02 08:11:41;;;;;;;1.50;0.60;;;14.40;99.90;;;;;;7399070;19;20031;-72
2023/06/02 08:14:10;;;;;;;1.90;0.70;;;14.50;99.90;;;;;;7397847;19;19998;-72
2023/06/02 08:16:41;;;;;;;2.05;0.70;;;14.50;99.90;;;;;;7397126;19;19922;-73
2023/06/02 08:19:10;;;;;;;2.35;0.45;;;14.40;99.90;;;;;;7401118;19;19922;-73
2023/06/02 08:21:40;;;;;;;1.08;0.60;;;14.60;99.90;;;;;;7400757;19;19918;-73
2023/06/02 08:24:09;;;;;;;1.48;0.52;;;14.70;99.90;;;;;;7402861;19;19922;-73
2023/06/02 08:26:39;;;;;;;1.15;0.30;;;14.70;99.90;;;;;;7406774;19;19918;-73
2023/06/02 08:29:10;;;;;;;1.17;0.50;;;14.80;99.90;;;;;;7404632;19;20604;-74
2023/06/02 08:31:42;;;;;;;1.85;0.70;;;14.80;99.90;;;;;;7406417;19;19947;-73
2023/06/02 08:34:11;;;;;;;0.40;0.30;;;14.70;99.90;;;;;;7407305;19;19925;-74
2023/06/02 08:36:40;;;;;;;0.50;0.30;;;13.80;99.90;;;;;;7406824;19;19914;-75
2023/06/02 08:39:09;;;;;;;2.10;0.40;;;14.90;99.90;;;;;;7406999;19;19936;-75
2023/06/02 08:41:41;;;;;;;1.90;0.60;;;15.00;99.90;;;;;;7405861;19;19919;-73
2023/06/02 08:44:10;;;;;;;0.90;0.25;;;15.20;99.90;;;;;;7402120;19;20353;-73
2023/06/02 08:46:42;;;;;;;0.82;0.30;;;15.10;99.90;;;;;;7403723;19;19922;-75
2023/06/02 08:49:15;;;;;;;;;;;15.30;99.90;;;;;;7404186;19;19974;-72
2023/06/02 08:51:46;;;;;;;1.38;0.30;;;15.20;99.90;;;;;;7406028;19;20340;-68
2023/06/02 08:54:16;;;;;;;0.10;0.10;;;15.30;99.90;;;;;;7403316;19;19918;-73
2023/06/02 08:56:49;;;;;;;0.20;0.10;;;15.40;99.90;;;;;;7406562;19;19926;-73
2023/06/02 08:59:19;;;;;;;0.70;0.20;;;15.50;99.90;;;;;;7406935;19;19982;-76
2023/06/02 09:01:51;;;;;;;1.83;0.28;;;15.40;99.90;;;;;;7404131;19;19926;-74
2023/06/02 09:04:20;;;;;;;;;;;15.60;99.90;;;;;;7406066;19;19978;-75
2023/06/02 09:06:49;;;;;;;0.80;0.25;;;15.60;99.90;;;;;;7401608;19;19942;-72
2023/06/02 09:09:18;;;;;;;0.68;0.20;;;15.70;99.90;;;;;;7405389;19;19925;-72
2023/06/02 09:12:00;;;;;;;0.38;0.20;;;15.70;99.90;;;;;;7399186;19;19921;-72
2023/06/02 09:14:29;;;;;;;0.17;0.17;;;15.80;99.90;;;;;;7404512;19;19966;-73
2023/06/02 09:17:00;;;;;;;0.50;0.20;;;15.90;99.90;;;;;;7404422;19;19986;-74
2023/06/02 09:19:49;;;;;;;0.90;0.30;;;16.00;99.90;;;;;;7402070;19;19919;-73
2023/06/02 09:22:18;;;;;;;0.25;0.25;;;16.10;99.90;;;;;;7402850;19;20307;-74
2023/06/02 09:24:47;;;;;;;0.40;0.20;;;16.10;99.90;;;;;;7403273;19;19954;-74
2023/06/02 09:27:17;;;;;;;0.20;0.20;;;16.20;99.90;;;;;;7403369;19;19950;-74
2023/06/02 09:29:48;;;;;;;0.60;0.20;;;16.20;99.90;;;;;;7404049;19;19923;-75
2023/06/02 09:32:21;;;;;;;0.47;0.20;;;16.30;99.90;;;;;;7404587;19;20406;-74
2023/06/02 09:34:49;;;;;;;1.45;0.20;;;16.20;99.90;;;;;;7400875;19;19925;-74
2023/06/02 09:37:20;;;;;;;1.02;0.30;;;17.90;99.90;;;;;;7402422;19;19929;-73
2023/06/02 09:39:53;;;;;;;0.88;0.20;;;16.50;99.90;;;;;;7402590;19;19926;-74
2023/06/02 09:42:23;;;;;;;0.55;0.20;;;16.60;99.90;;;;;;7402124;19;19943;-73
2023/06/02 09:45:08;;;;;;;0.35;0.10;;;16.80;99.90;;;;;;7400870;19;19922;-74
2023/06/02 09:47:43;;;;;;;0.40;0.20;;;16.80;99.90;;;;;;7404279;19;19926;-74
2023/06/02 09:50:32;;;;;;;0.50;0.10;;;16.90;99.90;;;;;;7404072;19;19986;-74
2023/06/02 09:53:06;;;;;;;0.85;0.20;;;17.10;99.90;;;;;;7405396;19;19922;-74
2023/06/02 09:55:38;;;;;;;1.25;0.30;;;16.90;99.90;;;;;;7403487;19;19922;-73
2023/06/02 09:58:08;;;;;;;1.08;0.20;;;17.20;99.90;;;;;;7405448;19;19925;-68
2023/06/02 10:00:38;;;;;;;0.63;0.13;;;17.20;99.90;;;;;;7397153;19;19925;-69
2023/06/02 10:03:10;;;;;;;1.00;0.20;;;17.30;99.90;;;;;;7393609;19;20310;-69
2023/06/02 10:05:42;;;;;;;0.20;0.20;;;17.40;99.90;;;;;;7401566;19;19922;-69
2023/06/02 10:08:24;;;;;;;0.57;0.20;;;17.50;99.90;;;;;;7399044;19;19944;-67
2023/06/02 10:11:03;;;;;;;0.55;0.20;;;17.60;99.90;;;;;;7400701;19;20368;-68
2023/06/02 10:14:07;;;;;;;1.15;0.20;;;17.80;99.90;;;;;;7398665;19;19981;-71
2023/06/02 10:16:50;;;;;;;0.28;0.10;;;17.80;99.90;;;;;;7401343;19;19933;-70
2023/06/02 10:19:41;;;;;;;1.35;0.30;;;17.70;99.90;;;;;;7400932;19;19927;-71
2023/06/02 10:22:27;;;;;;;0.40;0.10;;;17.70;99.90;;;;;;7399161;19;20027;-73
2023/06/02 10:25:07;;;;;;;0.30;0.20;;;17.80;99.90;;;;;;7392809;19;20269;-73
2023/06/02 10:27:40;;;;;;;0.82;0.40;;;18.10;99.90;;;;;;7395189;19;19922;-72
2023/06/02 10:30:10;;;;;;;1.05;0.20;;;18.00;99.90;;;;;;7391467;19;19918;-72
2023/06/02 10:32:46;;;;;;;0.60;0.15;;;18.30;99.90;;;;;;7394564;19;20364;-72
2023/06/02 10:35:18;;;;;;;0.30;0.30;;;18.20;99.90;;;;;;7394529;19;19930;-69
2023/06/02 10:37:48;;;;;;;;;;;18.30;99.90;;;;;;7402495;19;20001;-71
2023/06/02 10:40:21;;;;;;;0.45;0.20;;;18.40;99.90;;;;;;7395698;19;19950;-71
2023/06/02 10:43:14;;;;;;;0.93;0.40;;;18.50;99.90;;;;;;7399805;19;19915;-70
2023/06/02 10:45:44;;;;;;;7.68;1.65;;;18.40;99.90;;;;;;7398007;19;19922;-73
2023/06/02 10:48:40;;;;;;;0.50;0.28;;;18.50;99.90;;;;;;7396977;19;19943;-73
2023/06/02 10:51:13;;;;;;;1.80;0.40;;;18.70;99.90;;;;;;7399810;19;19918;-73
2023/06/02 10:54:15;;;;;;;1.15;0.38;;;18.50;99.90;;;;;;7399659;19;19926;-72
2023/06/02 10:56:48;;;;;;;1.40;0.38;;;18.60;99.90;;;;;;7396811;19;19914;-73
2023/06/02 10:59:36;;;;;;;0.93;0.20;;;18.60;99.90;;;;;;7402332;19;19929;-73
2023/06/02 11:02:05;;;;;;;0.65;0.32;;;18.90;99.90;;;;;;7398901;19;19945;-73
2023/06/02 11:04:37;;;;;;;0.98;0.30;;;19.10;99.90;;;;;;7398444;19;19923;-73
2023/06/02 11:07:26;;;;;;;0.55;0.30;;;19.10;99.90;;;;;;7401714;19;19922;-74
2023/06/02 11:09:56;;;;;;;;;;;19.40;99.90;;;;;;7403796;19;19919;-73
2023/06/02 11:12:57;;;;;;;0.40;0.28;;;19.40;99.90;;;;;;7397921;19;19922;-74
2023/06/02 11:15:26;;;;;;;;;;;19.40;99.90;;;;;;7403960;19;20022;-73
2023/06/02 11:17:55;;;;;;;0.55;0.38;;;19.30;99.90;;;;;;7398851;19;19998;-75
2023/06/02 11:20:36;;;;;;;0.93;0.40;;;19.10;99.90;;;;;;7402064;19;19922;-73
2023/06/02 11:23:08;;;;;;;1.15;0.40;;;19.10;99.90;;;;;;7397926;19;20013;-73
2023/06/02 11:25:38;;;;;;;0.40;0.30;;;18.70;99.90;;;;;;7396461;19;19925;-73
2023/06/02 11:28:07;;;;;;;0.52;0.30;;;19.00;99.90;;;;;;7399174;19;20336;-70
2023/06/02 11:30:36;;;;;;;0.70;0.30;;;19.20;99.90;;;;;;7397669;19;19919;-70
2023/06/02 11:33:05;;;;;;;1.10;0.40;;;19.60;99.90;;;;;;7400130;19;19921;-76
2023/06/02 11:35:34;;;;;;;0.47;0.30;;;19.70;99.90;;;;;;7402409;19;19922;-78
2023/06/02 11:38:08;;;;;;;0.52;0.38;;;19.60;99.90;;;;;;7399329;19;20396;-71
2023/06/02 11:40:38;;;;;;;0.73;0.30;;;19.70;99.90;;;;;;7394156;19;20339;-71
2023/06/02 11:43:07;;;;;;;1.15;0.20;;;20.10;99.90;;;;;;7393808;19;19922;-70
2023/06/02 11:45:38;;;;;;;2.78;0.35;;;20.30;99.90;;;;;;7391125;19;19942;-74
2023/06/02 11:48:09;;;;;;;1.55;0.40;;;20.70;99.90;;;;;;7399743;19;19927;-75
2023/06/02 11:50:38;;;;;;;0.55;0.30;;;20.90;99.90;;;;;;7396490;19;20258;-74
2023/06/02 11:53:15;;;;;;;1.50;0.30;;;20.90;99.90;;;;;;7400860;19;19929;-76
2023/06/02 11:55:44;;;;;;;0.57;0.30;;;20.50;99.90;;;;;;7399911;19;19929;-76
2023/06/02 11:58:22;;;;;;;0.63;0.30;;;20.30;99.90;;;;;;7398423;19;19987;-70
2023/06/02 12:00:52;;;;;;;0.43;0.20;;;20.00;99.90;;;;;;7397566;19;19922;-69
2023/06/02 12:03:24;;;;;;;0.95;0.30;;;19.70;99.90;;;;;;7399467;19;19919;-70
2023/06/02 12:05:55;;;;;;;2.03;0.35;;;19.60;99.90;;;;;;7398141;19;19922;-70
2023/06/02 12:08:28;;;;;;;2.80;0.50;;;19.90;99.90;;;;;;7399316;19;19918;-70
2023/06/02 12:10:57;;;;;;;0.38;0.20;;;20.20;99.90;;;;;;7397009;19;20021;-69
2023/06/02 12:13:27;;;;;;;1.17;0.40;;;20.60;99.90;;;;;;7398304;19;19919;-69
2023/06/02 12:15:56;;;;;;;1.30;0.30;;;21.00;99.90;;;;;;7398672;19;20265;-69
2023/06/02 12:18:33;;;;;;;1.40;0.40;;;21.30;99.90;;;;;;7399487;19;19994;-70
2023/06/02 12:21:02;;;;;;;0.70;0.25;;;21.40;99.90;;;;;;7397620;19;19922;-72
2023/06/02 12:23:49;;;;;;;0.95;0.40;;;21.30;99.90;;;;;;7395347;19;20365;-73
2023/06/02 12:26:18;;;;;;;0.80;0.50;;;21.30;99.90;;;;;;7395090;19;19977;-69
2023/06/02 12:28:48;;;;;;;0.75;0.30;;;21.20;99.90;;;;;;7400514;19;19919;-70
2023/06/02 12:31:19;;;;;;;0.90;0.30;;;21.10;99.90;;;;;;7397701;19;19995;-69
2023/06/02 12:33:48;;;;;;;1.13;0.63;;;20.80;99.90;;;;;;7396885;19;20270;-70
2023/06/02 12:36:17;;;;;;;1.15;0.73;;;20.70;99.90;;;;;;7402001;19;19922;-76
2023/06/02 12:38:48;;;;;;;1.05;0.40;;;20.30;99.90;;;;;;7400200;19;19995;-71
2023/06/02 12:41:17;;;;;;;0.95;0.50;;;20.40;99.90;;;;;;7396695;19;19929;-70
2023/06/02 12:43:46;;;;;;;1.17;0.50;;;20.20;99.90;;;;;;7401027;19;19915;-70
2023/06/02 12:46:16;;;;;;;0.95;0.52;;;20.10;99.90;;;;;;7398702;19;20638;-70
2023/06/02 12:48:47;;;;;;;0.43;0.32;;;20.20;99.90;;;;;;7400296;19;19922;-70
2023/06/02 12:51:16;;;;;;;0.60;0.50;;;20.10;99.90;;;;;;7400716;19;20332;-71
2023/06/02 12:53:45;;;;;;;0.82;0.50;;;20.30;99.90;;;;;;7401861;19;19976;-70
2023/06/02 12:56:17;;;;;;;1.23;0.40;;;20.60;99.90;;;;;;7402146;19;20396;-71
2023/06/02 12:58:47;;;;;;;0.63;0.40;;;20.80;99.90;;;;;;7400181;19;19919;-70
2023/06/02 13:01:16;;;;;;;1.13;0.60;;;21.10;99.90;;;;;;7402265;19;20325;-70
2023/06/02 13:03:49;;;;;;;0.57;0.57;;;21.50;99.90;;;;;;7401281;19;20340;-70
2023/06/02 13:06:20;;;;;;;0.60;0.60;;;22.10;99.90;;;;;;7402611;19;20221;-70
2023/06/02 13:08:49;;;;;;;1.55;0.50;;;22.40;99.90;;;;;;7401031;19;19922;-71